Time;durP1;ratioP1;P1;durP2;ratioP2;P2;SDS_P1;SDS_P2;PMS_P1;PMS_P2;Temp;Humidity;BMP_temperature;BMP_pressure;BME280_temperature;BME280_humidity;BME280_pressure;Samples;Min_cycle;Max_cycle;Signal;HPM_P1;HPM_P2
2023/01/24 00:02:10;;;;;;;13.23;9.23;;;;;;;;;;5019333;28;20195;-74
2023/01/24 00:04:36;;;;;;;11.97;9.23;;;;;;;;;;5022841;28;20205;-74
2023/01/24 00:07:03;;;;;;;12.70;8.97;;;;;;;;;;5014808;28;20925;-76
2023/01/24 00:09:29;;;;;;;13.37;9.20;;;;;;;;;;5016906;28;20186;-74
2023/01/24 00:11:55;;;;;;;12.27;8.77;;;;;;;;;;5022918;28;20178;-74
2023/01/24 00:14:21;;;;;;;12.27;8.47;;;;;;;;;;5017241;28;20198;-74
2023/01/24 00:16:47;;;;;;;11.87;8.90;;;;;;;;;;5018990;28;20186;-74
2023/01/24 00:19:14;;;;;;;12.83;9.13;;;;;;;;;;5028260;28;20205;-74
2023/01/24 00:21:40;;;;;;;13.50;9.27;;;;;;;;;;5017144;28;20197;-74
2023/01/24 00:24:06;;;;;;;12.83;9.27;;;;;;;;;;5012949;28;20693;-74
2023/01/24 00:26:32;;;;;;;12.73;9.27;;;;;;;;;;5017861;28;20906;-74
2023/01/24 00:28:58;;;;;;;12.13;8.73;;;;;;;;;;5019628;28;20183;-74
2023/01/24 00:31:25;;;;;;;12.00;8.77;;;;;;;;;;5017046;28;20175;-74
2023/01/24 00:33:51;;;;;;;12.20;8.50;;;;;;;;;;5015278;28;20302;-74
2023/01/24 00:36:17;;;;;;;11.43;8.43;;;;;;;;;;5015571;28;20190;-75
2023/01/24 00:38:43;;;;;;;12.37;9.00;;;;;;;;;;5002101;28;20187;-74
2023/01/24 00:41:10;;;;;;;12.13;8.77;;;;;;;;;;5020436;28;20182;-74
2023/01/24 00:43:36;;;;;;;11.50;8.80;;;;;;;;;;5019644;28;20183;-74
2023/01/24 00:46:05;;;;;;;10.30;7.83;;;;;;;;;;5015357;28;20181;-74
2023/01/24 00:48:31;;;;;;;11.33;8.33;;;;;;;;;;5003051;28;20557;-74
2023/01/24 00:50:58;;;;;;;10.27;7.70;;;;;;;;;;5018193;28;20186;-74
2023/01/24 00:53:26;;;;;;;11.23;8.13;;;;;;;;;;5019061;28;20197;-74
2023/01/24 00:55:54;;;;;;;13.20;8.43;;;;;;;;;;5021718;28;20194;-74
2023/01/24 00:58:21;;;;;;;11.57;8.07;;;;;;;;;;5019057;28;20179;-74
2023/01/24 01:00:47;;;;;;;12.63;8.50;;;;;;;;;;5020130;28;20225;-74
2023/01/24 01:03:19;;;;;;;10.07;7.93;;;;;;;;;;5017300;28;20183;-74
2023/01/24 01:05:46;;;;;;;11.30;8.17;;;;;;;;;;5005384;28;20653;-74
2023/01/24 01:08:12;;;;;;;12.20;8.77;;;;;;;;;;5024323;28;20230;-73
2023/01/24 01:10:39;;;;;;;11.93;8.80;;;;;;;;;;5022106;28;20186;-73
2023/01/24 01:13:06;;;;;;;11.80;8.30;;;;;;;;;;5020054;28;20199;-73
2023/01/24 01:15:33;;;;;;;11.67;8.23;;;;;;;;;;5021809;28;20646;-73
2023/01/24 01:17:59;;;;;;;12.30;8.47;;;;;;;;;;5021138;28;20190;-73
2023/01/24 01:20:29;;;;;;;10.87;7.63;;;;;;;;;;5021790;28;20183;-73
2023/01/24 01:22:55;;;;;;;11.63;8.73;;;;;;;;;;5022025;28;20182;-73
2023/01/24 01:25:27;;;;;;;11.40;8.47;;;;;;;;;;5016599;28;20211;-73
2023/01/24 01:27:53;;;;;;;14.00;9.20;;;;;;;;;;5018662;28;20294;-73
2023/01/24 01:30:19;;;;;;;13.07;8.83;;;;;;;;;;5019230;28;20183;-73
2023/01/24 01:32:45;;;;;;;12.97;8.50;;;;;;;;;;5007434;28;20266;-73
2023/01/24 01:35:11;;;;;;;13.63;9.00;;;;;;;;;;4990876;28;20211;-73
2023/01/24 01:37:38;;;;;;;12.07;8.77;;;;;;;;;;5018516;28;20214;-73
2023/01/24 01:40:04;;;;;;;11.93;8.63;;;;;;;;;;5019486;28;20682;-73
2023/01/24 01:42:40;;;;;;;10.67;8.10;;;;;;;;;;5018964;28;20277;-73
2023/01/24 01:45:26;;;;;;;11.40;8.27;;;;;;;;;;5024735;28;20817;-73
2023/01/24 01:47:52;;;;;;;10.70;7.87;;;;;;;;;;5019117;28;20606;-73
2023/01/24 01:50:28;;;;;;;10.90;8.30;;;;;;;;;;5021066;28;20194;-73
2023/01/24 01:52:54;;;;;;;12.37;8.37;;;;;;;;;;5018958;28;20182;-73
2023/01/24 01:55:23;;;;;;;11.47;8.47;;;;;;;;;;5020963;28;20252;-73
2023/01/24 01:57:51;;;;;;;10.03;8.03;;;;;;;;;;5036881;28;20192;-73
2023/01/24 02:00:24;;;;;;;13.77;8.20;;;;;;;;;;5022677;28;20194;-73
2023/01/24 02:03:37;;;;;;;10.50;7.60;;;;;;;;;;5022084;28;20187;-73
2023/01/24 02:05:42;;;;;;;10.60;8.13;;;;;;;;;;5019910;28;20214;-73
2023/01/24 02:08:11;;;;;;;12.50;8.47;;;;;;;;;;5020851;28;20214;-73
2023/01/24 02:13:23;;;;;;;10.70;7.87;;;;;;;;;;5017797;28;20237;-73
2023/01/24 02:16:04;;;;;;;10.70;7.50;;;;;;;;;;5023411;28;20198;-73
2023/01/24 02:18:37;;;;;;;11.00;7.90;;;;;;;;;;5021359;28;20183;-73
2023/01/24 02:21:15;;;;;;;10.73;8.03;;;;;;;;;;5021549;28;20661;-74
2023/01/24 02:23:47;;;;;;;12.43;8.20;;;;;;;;;;5019464;28;20179;-74
2023/01/24 02:26:13;;;;;;;11.67;8.70;;;;;;;;;;5017481;28;20649;-73
2023/01/24 02:28:43;;;;;;;11.50;8.27;;;;;;;;;;5012664;28;20203;-73
2023/01/24 02:31:09;;;;;;;12.27;8.83;;;;;;;;;;5018932;28;20187;-73
2023/01/24 02:33:35;;;;;;;11.63;8.40;;;;;;;;;;5021228;28;20686;-73
2023/01/24 02:36:14;;;;;;;11.33;8.40;;;;;;;;;;5022803;28;20653;-73
2023/01/24 02:38:41;;;;;;;11.47;7.90;;;;;;;;;;5019264;28;20194;-73
2023/01/24 02:41:08;;;;;;;10.37;7.77;;;;;;;;;;5023874;28;20227;-73
2023/01/24 02:43:39;;;;;;;11.37;7.80;;;;;;;;;;5016694;28;20224;-73
2023/01/24 02:46:05;;;;;;;11.27;8.27;;;;;;;;;;5019376;28;20216;-73
2023/01/24 02:48:31;;;;;;;11.10;7.77;;;;;;;;;;5022989;28;20175;-73
2023/01/24 02:53:43;;;;;;;11.30;8.33;;;;;;;;;;5022173;28;20285;-74
2023/01/24 02:58:56;;;;;;;10.77;7.57;;;;;;;;;;5016119;28;20267;-74
2023/01/24 03:01:29;;;;;;;11.07;8.13;;;;;;;;;;5021439;28;20749;-73
2023/01/24 03:03:55;;;;;;;11.30;8.17;;;;;;;;;;5019534;28;20202;-74
2023/01/24 03:06:21;;;;;;;10.27;7.97;;;;;;;;;;5008966;28;20305;-74
2023/01/24 03:08:48;;;;;;;11.53;8.20;;;;;;;;;;5019920;28;20190;-73
2023/01/24 03:11:33;;;;;;;12.93;8.53;;;;;;;;;;5006640;28;20222;-73
2023/01/24 03:36:06;;;;;;;13.07;7.53;;;;;;;;;;5000224;28;20191;-74
2023/01/24 03:41:21;;;;;;;9.50;7.17;;;;;;;;;;5019659;28;20332;-74
2023/01/24 03:43:47;;;;;;;9.17;6.50;;;;;;;;;;5013553;28;20203;-74
2023/01/24 03:46:14;;;;;;;10.10;7.00;;;;;;;;;;5021455;28;20193;-74
2023/01/24 03:48:51;;;;;;;9.73;7.33;;;;;;;;;;5016133;28;20198;-74
2023/01/24 03:54:05;;;;;;;10.60;6.90;;;;;;;;;;5021063;28;20214;-74
2023/01/24 03:56:39;;;;;;;9.80;6.50;;;;;;;;;;5017153;28;20213;-74
2023/01/24 03:59:06;;;;;;;9.33;6.67;;;;;;;;;;5020906;28;20206;-74
2023/01/24 04:01:35;;;;;;;9.57;7.47;;;;;;;;;;5020135;28;20186;-74
2023/01/24 04:04:07;;;;;;;10.20;7.07;;;;;;;;;;5013480;28;20204;-74
2023/01/24 04:06:34;;;;;;;10.50;7.13;;;;;;;;;;5013710;28;20332;-74
2023/01/24 04:09:02;;;;;;;9.73;7.27;;;;;;;;;;5014176;28;20690;-74
2023/01/24 04:11:28;;;;;;;10.75;7.60;;;;;;;;;;5018831;28;20424;-74
2023/01/24 04:14:03;;;;;;;9.17;7.57;;;;;;;;;;5019618;28;20214;-74
2023/01/24 04:16:33;;;;;;;10.40;7.43;;;;;;;;;;5013803;28;20205;-74
2023/01/24 04:19:07;;;;;;;10.30;7.13;;;;;;;;;;5015983;28;20940;-74
2023/01/24 04:21:34;;;;;;;10.40;7.23;;;;;;;;;;5014681;28;20260;-74
2023/01/24 04:24:00;;;;;;;9.23;6.70;;;;;;;;;;5018351;28;20247;-74
2023/01/24 04:26:28;;;;;;;10.13;7.73;;;;;;;;;;5001302;28;20728;-74
2023/01/24 04:28:55;;;;;;;9.40;7.23;;;;;;;;;;5018963;28;20309;-74
2023/01/24 04:31:21;;;;;;;10.43;7.53;;;;;;;;;;5016077;28;20175;-74
2023/01/24 04:34:06;;;;;;;12.30;8.10;;;;;;;;;;5021467;28;20228;-74
2023/01/24 04:36:34;;;;;;;11.83;7.97;;;;;;;;;;5023287;28;20183;-74
2023/01/24 04:39:01;;;;;;;11.77;7.87;;;;;;;;;;5019977;28;20189;-74
2023/01/24 04:41:33;;;;;;;11.03;7.83;;;;;;;;;;5020926;28;20277;-74
2023/01/24 04:43:59;;;;;;;10.07;7.80;;;;;;;;;;5021082;28;20198;-74
2023/01/24 04:46:25;;;;;;;9.73;7.40;;;;;;;;;;5023587;28;20257;-74
2023/01/24 04:48:54;;;;;;;11.27;7.60;;;;;;;;;;5024670;28;20601;-74
2023/01/24 04:51:22;;;;;;;10.87;7.43;;;;;;;;;;5008036;28;20186;-74
2023/01/24 04:53:49;;;;;;;10.90;7.60;;;;;;;;;;5023059;28;20210;-74
2023/01/24 04:56:20;;;;;;;10.70;7.80;;;;;;;;;;4991449;28;20273;-74
2023/01/24 04:58:46;;;;;;;9.80;7.83;;;;;;;;;;5026058;28;20815;-74
2023/01/24 05:01:13;;;;;;;10.30;7.43;;;;;;;;;;5021741;28;20197;-74
2023/01/24 05:03:51;;;;;;;10.40;7.87;;;;;;;;;;5024684;28;20305;-74
2023/01/24 05:06:17;;;;;;;9.77;7.63;;;;;;;;;;5021261;28;20191;-74
2023/01/24 05:08:43;;;;;;;10.20;7.72;;;;;;;;;;5018916;28;21014;-74
2023/01/24 05:11:09;;;;;;;10.77;7.90;;;;;;;;;;5017034;28;20214;-74
2023/01/24 05:13:42;;;;;;;10.07;7.17;;;;;;;;;;5018609;28;20183;-74
2023/01/24 05:16:08;;;;;;;9.77;7.60;;;;;;;;;;5007213;28;20697;-74
2023/01/24 05:18:35;;;;;;;12.37;8.43;;;;;;;;;;5002570;28;20217;-74
2023/01/24 05:21:08;;;;;;;9.80;7.63;;;;;;;;;;5023315;28;20210;-74
2023/01/24 05:23:35;;;;;;;11.03;7.67;;;;;;;;;;5025418;28;20182;-75
2023/01/24 05:26:02;;;;;;;11.40;8.20;;;;;;;;;;5022825;28;20227;-74
2023/01/24 05:28:29;;;;;;;11.60;8.47;;;;;;;;;;5020489;28;20876;-74
2023/01/24 05:31:04;;;;;;;10.93;7.77;;;;;;;;;;5007574;28;20214;-74
2023/01/24 05:33:31;;;;;;;11.00;8.17;;;;;;;;;;5019876;28;20190;-74
2023/01/24 05:35:58;;;;;;;10.57;7.87;;;;;;;;;;5020814;28;20195;-74
2023/01/24 05:38:24;;;;;;;12.77;8.60;;;;;;;;;;5020862;28;20218;-74
2023/01/24 05:40:51;;;;;;;10.40;7.73;;;;;;;;;;5016730;28;20600;-74
2023/01/24 05:43:17;;;;;;;11.77;8.57;;;;;;;;;;5024188;28;20178;-74
2023/01/24 05:45:43;;;;;;;10.85;9.00;;;;;;;;;;5022990;28;20507;-74
2023/01/24 05:48:10;;;;;;;12.02;9.15;;;;;;;;;;5024168;28;20430;-74
2023/01/24 05:50:36;;;;;;;12.43;8.90;;;;;;;;;;5023341;28;20261;-74
2023/01/24 05:53:10;;;;;;;11.23;8.33;;;;;;;;;;5039531;28;21977;-74
2023/01/24 05:55:36;;;;;;;12.30;8.50;;;;;;;;;;5020798;28;20600;-74
2023/01/24 05:58:02;;;;;;;14.67;8.77;;;;;;;;;;5023017;28;20179;-74
2023/01/24 06:00:40;;;;;;;14.70;9.30;;;;;;;;;;5018069;28;20193;-74
2023/01/24 06:03:24;;;;;;;11.67;8.80;;;;;;;;;;5018250;28;20758;-74
2023/01/24 06:05:54;;;;;;;13.50;9.33;;;;;;;;;;5006844;28;20197;-74
2023/01/24 06:08:21;;;;;;;13.93;9.17;;;;;;;;;;5018232;28;20275;-74
2023/01/24 06:10:47;;;;;;;11.70;8.47;;;;;;;;;;5021663;28;20662;-74
2023/01/24 06:13:14;;;;;;;14.70;9.70;;;;;;;;;;5027402;28;20665;-75
2023/01/24 06:15:41;;;;;;;14.13;9.00;;;;;;;;;;5020793;28;20716;-74
2023/01/24 06:18:13;;;;;;;13.45;10.35;;;;;;;;;;5022397;28;20417;-74
2023/01/24 06:20:39;;;;;;;12.90;9.33;;;;;;;;;;5015500;28;20180;-75
2023/01/24 06:23:07;;;;;;;13.07;10.48;;;;;;;;;;5009348;28;20438;-79
2023/01/24 06:25:38;;;;;;;13.80;9.63;;;;;;;;;;4986582;28;20266;-76
2023/01/24 06:28:04;;;;;;;12.03;8.83;;;;;;;;;;5016661;28;20230;-75
2023/01/24 06:30:30;;;;;;;13.47;9.40;;;;;;;;;;5011604;28;20262;-77
2023/01/24 06:33:02;;;;;;;12.63;9.20;;;;;;;;;;5013725;28;20211;-77
2023/01/24 06:35:28;;;;;;;13.73;9.50;;;;;;;;;;5016468;28;20669;-78
2023/01/24 06:37:54;;;;;;;14.15;9.38;;;;;;;;;;5021581;28;20451;-77
2023/01/24 06:40:25;;;;;;;12.97;9.23;;;;;;;;;;5015452;28;20793;-75
2023/01/24 06:42:52;;;;;;;14.03;9.77;;;;;;;;;;5022002;28;20174;-74
2023/01/24 06:45:18;;;;;;;14.23;9.53;;;;;;;;;;5024294;28;20211;-74
2023/01/24 06:47:45;;;;;;;14.07;10.90;;;;;;;;;;5018043;28;20516;-75
2023/01/24 06:50:15;;;;;;;13.05;10.85;;;;;;;;;;5028456;28;20451;-74
2023/01/24 06:52:41;;;;;;;14.13;9.90;;;;;;;;;;5022565;28;20225;-74
2023/01/24 06:55:07;;;;;;;14.57;9.43;;;;;;;;;;5025483;28;20587;-75
2023/01/24 06:57:33;;;;;;;12.77;8.87;;;;;;;;;;5026070;28;20224;-74
2023/01/24 07:00:00;;;;;;;14.47;10.40;;;;;;;;;;5023628;28;20534;-75
2023/01/24 07:02:26;;;;;;;13.80;9.80;;;;;;;;;;5030355;28;20181;-74
2023/01/24 07:04:52;;;;;;;14.43;9.97;;;;;;;;;;5027885;28;20199;-75
2023/01/24 07:07:18;;;;;;;14.33;9.20;;;;;;;;;;5019433;28;20206;-74
2023/01/24 07:09:44;;;;;;;14.37;9.50;;;;;;;;;;5018794;28;20183;-75
2023/01/24 07:12:10;;;;;;;14.18;9.80;;;;;;;;;;5022087;28;20437;-75
2023/01/24 07:14:36;;;;;;;15.15;11.82;;;;;;;;;;5020094;28;20504;-75
2023/01/24 07:17:03;;;;;;;15.00;10.60;;;;;;;;;;5028856;28;20260;-75
2023/01/24 07:19:29;;;;;;;16.07;11.07;;;;;;;;;;5023818;28;20550;-74
2023/01/24 07:21:56;;;;;;;16.03;10.50;;;;;;;;;;5018213;28;20221;-74
2023/01/24 07:24:24;;;;;;;15.37;10.40;;;;;;;;;;5018530;28;20203;-75
2023/01/24 07:26:51;;;;;;;16.37;9.97;;;;;;;;;;5020306;28;20226;-75
2023/01/24 07:29:20;;;;;;;13.67;10.17;;;;;;;;;;5018046;28;20183;-74
2023/01/24 07:31:49;;;;;;;14.47;10.17;;;;;;;;;;5018359;28;20270;-74
2023/01/24 07:34:16;;;;;;;16.77;10.80;;;;;;;;;;5024472;28;20234;-75
2023/01/24 07:36:43;;;;;;;15.57;10.53;;;;;;;;;;5008679;28;20209;-75
2023/01/24 07:39:09;;;;;;;18.93;11.60;;;;;;;;;;5008984;28;20176;-74
2023/01/24 07:41:36;;;;;;;17.17;10.27;;;;;;;;;;5020853;28;20195;-74
2023/01/24 07:44:04;;;;;;;18.40;11.27;;;;;;;;;;5022829;28;20290;-75
2023/01/24 07:46:34;;;;;;;15.70;10.27;;;;;;;;;;5020563;28;20273;-75
2023/01/24 07:49:00;;;;;;;18.77;12.23;;;;;;;;;;5022934;28;20175;-75
2023/01/24 07:51:26;;;;;;;17.03;10.90;;;;;;;;;;5023406;28;20186;-75
2023/01/24 07:53:53;;;;;;;16.83;10.77;;;;;;;;;;5015985;28;21110;-75
2023/01/24 07:56:19;;;;;;;16.50;11.23;;;;;;;;;;5018052;28;20313;-75
2023/01/24 07:58:45;;;;;;;16.23;10.87;;;;;;;;;;5019886;28;20266;-74
2023/01/24 08:01:21;;;;;;;17.33;10.00;;;;;;;;;;5018516;28;20191;-74
2023/01/24 08:03:47;;;;;;;16.47;10.57;;;;;;;;;;5022226;28;20226;-74
2023/01/24 08:06:13;;;;;;;15.43;10.57;;;;;;;;;;5003776;28;20199;-75
2023/01/24 08:08:40;;;;;;;17.77;11.77;;;;;;;;;;5021764;28;20186;-75
2023/01/24 08:11:06;;;;;;;15.90;10.63;;;;;;;;;;5022833;28;20179;-75
2023/01/24 08:13:32;;;;;;;17.33;11.20;;;;;;;;;;5027158;28;20194;-75
2023/01/24 08:16:00;;;;;;;17.13;10.83;;;;;;;;;;5023598;28;20187;-75
2023/01/24 08:18:26;;;;;;;17.30;10.77;;;;;;;;;;5020303;28;20191;-75
2023/01/24 08:20:56;;;;;;;17.70;10.93;;;;;;;;;;5023498;28;20678;-74
2023/01/24 08:23:22;;;;;;;15.70;10.30;;;;;;;;;;5019442;28;20584;-75
2023/01/24 08:25:48;;;;;;;17.20;11.30;;;;;;;;;;5019373;28;20199;-75
2023/01/24 08:28:15;;;;;;;17.33;11.67;;;;;;;;;;5018153;28;20300;-75
2023/01/24 08:30:41;;;;;;;16.93;10.87;;;;;;;;;;5018237;28;20179;-75
2023/01/24 08:33:10;;;;;;;18.83;11.90;;;;;;;;;;5019722;28;20244;-75
2023/01/24 08:35:36;;;;;;;17.87;11.37;;;;;;;;;;5021467;28;20214;-78
2023/01/24 08:38:02;;;;;;;17.53;11.23;;;;;;;;;;5013796;28;20179;-76
2023/01/24 08:40:28;;;;;;;15.90;10.53;;;;;;;;;;5020087;28;20210;-75
2023/01/24 08:42:55;;;;;;;18.10;11.20;;;;;;;;;;5022955;28;20191;-77
2023/01/24 08:45:21;;;;;;;17.37;11.57;;;;;;;;;;5020397;28;20312;-75
2023/01/24 08:47:52;;;;;;;16.03;10.90;;;;;;;;;;5026832;28;20301;-78
2023/01/24 08:50:19;;;;;;;15.83;10.73;;;;;;;;;;5009418;28;20569;-79
2023/01/24 08:52:45;;;;;;;15.60;10.30;;;;;;;;;;5008137;28;20171;-78
2023/01/24 08:55:12;;;;;;;15.73;10.30;;;;;;;;;;5019023;28;20212;-77
2023/01/24 08:57:38;;;;;;;16.43;10.90;;;;;;;;;;5027552;28;20182;-78
2023/01/24 09:00:04;;;;;;;15.97;10.77;;;;;;;;;;5002785;28;20206;-76
2023/01/24 09:02:36;;;;;;;18.87;11.77;;;;;;;;;;5018698;28;20206;-76
2023/01/24 09:05:03;;;;;;;16.00;10.87;;;;;;;;;;5018352;28;20207;-76
2023/01/24 09:07:30;;;;;;;17.77;12.10;;;;;;;;;;5018259;28;20195;-76
2023/01/24 09:09:56;;;;;;;16.90;11.20;;;;;;;;;;5036076;28;20901;-76
2023/01/24 09:12:22;;;;;;;14.87;10.40;;;;;;;;;;5016729;28;20222;-76
2023/01/24 09:14:48;;;;;;;15.53;11.03;;;;;;;;;;5024645;28;20214;-76
2023/01/24 09:17:14;;;;;;;16.27;10.63;;;;;;;;;;5024846;28;20244;-76
2023/01/24 09:19:40;;;;;;;16.03;10.70;;;;;;;;;;5017621;28;20183;-76
2023/01/24 09:22:06;;;;;;;16.87;11.13;;;;;;;;;;5012302;28;20191;-76
2023/01/24 09:24:32;;;;;;;17.27;10.93;;;;;;;;;;5016831;28;20337;-76
2023/01/24 09:26:59;;;;;;;18.63;11.00;;;;;;;;;;5023450;28;20310;-76
2023/01/24 09:29:25;;;;;;;17.10;11.10;;;;;;;;;;5024354;28;20190;-76
2023/01/24 09:31:54;;;;;;;17.77;11.40;;;;;;;;;;5013946;28;20262;-76
2023/01/24 09:34:21;;;;;;;16.83;11.43;;;;;;;;;;5024940;28;20299;-76
2023/01/24 09:36:50;;;;;;;15.73;10.73;;;;;;;;;;5025926;28;20191;-76
2023/01/24 09:39:16;;;;;;;16.90;11.30;;;;;;;;;;5019888;28;20187;-76
2023/01/24 09:41:59;;;;;;;17.30;11.00;;;;;;;;;;5021264;28;20249;-77
2023/01/24 09:44:35;;;;;;;16.50;10.80;;;;;;;;;;5017965;28;20273;-76
2023/01/24 09:47:02;;;;;;;15.00;10.50;;;;;;;;;;5020799;28;20193;-77
2023/01/24 09:49:37;;;;;;;18.03;11.50;;;;;;;;;;5025737;28;20184;-77
2023/01/24 09:52:05;;;;;;;16.50;11.20;;;;;;;;;;5022428;28;20271;-77
2023/01/24 09:54:50;;;;;;;16.37;11.20;;;;;;;;;;5018410;28;20230;-77
2023/01/24 09:57:26;;;;;;;16.97;11.03;;;;;;;;;;5043115;28;20178;-77
2023/01/24 09:59:54;;;;;;;18.10;11.00;;;;;;;;;;5000475;28;20182;-76
2023/01/24 10:02:21;;;;;;;15.53;10.23;;;;;;;;;;5016183;28;20215;-77
2023/01/24 10:04:48;;;;;;;15.30;10.40;;;;;;;;;;5014299;28;20248;-77
2023/01/24 10:07:17;;;;;;;17.80;11.73;;;;;;;;;;5015370;28;20562;-77
2023/01/24 10:09:49;;;;;;;17.90;11.90;;;;;;;;;;5025124;28;20265;-77
2023/01/24 10:12:16;;;;;;;18.63;12.20;;;;;;;;;;5015647;28;20167;-77
2023/01/24 10:14:51;;;;;;;17.20;11.57;;;;;;;;;;5019125;28;20682;-77
2023/01/24 10:17:26;;;;;;;16.80;11.70;;;;;;;;;;5003353;28;20225;-77
2023/01/24 10:20:00;;;;;;;17.73;11.80;;;;;;;;;;5037259;28;20344;-76
2023/01/24 10:22:41;;;;;;;16.03;10.93;;;;;;;;;;5007551;28;20182;-77
2023/01/24 10:25:14;;;;;;;15.63;10.50;;;;;;;;;;5019311;28;20281;-77
2023/01/24 10:27:43;;;;;;;16.57;10.27;;;;;;;;;;5018330;28;20222;-77
2023/01/24 10:30:15;;;;;;;17.10;11.90;;;;;;;;;;5023603;28;20194;-77
2023/01/24 10:32:43;;;;;;;15.13;10.20;;;;;;;;;;5001829;28;20187;-77
2023/01/24 10:35:13;;;;;;;15.63;10.40;;;;;;;;;;5019028;28;20202;-77
2023/01/24 10:37:42;;;;;;;16.70;10.47;;;;;;;;;;5026602;28;20255;-77
2023/01/24 10:40:12;;;;;;;15.83;10.77;;;;;;;;;;5027339;28;20202;-77
2023/01/24 10:42:39;;;;;;;17.67;11.07;;;;;;;;;;5025587;28;20183;-77
2023/01/24 10:45:30;;;;;;;15.90;10.67;;;;;;;;;;5015139;28;20585;-77
2023/01/24 10:47:59;;;;;;;14.20;9.83;;;;;;;;;;4984234;28;20571;-77
2023/01/24 10:50:33;;;;;;;15.83;10.43;;;;;;;;;;5014455;28;20199;-77
2023/01/24 10:53:13;;;;;;;14.93;10.50;;;;;;;;;;5027364;28;20186;-77
2023/01/24 10:55:40;;;;;;;13.90;9.67;;;;;;;;;;5010273;28;20230;-76
2023/01/24 10:58:23;;;;;;;15.40;10.50;;;;;;;;;;5016336;28;20257;-77
2023/01/24 11:01:00;;;;;;;15.73;9.97;;;;;;;;;;5028508;28;20772;-77
2023/01/24 11:03:28;;;;;;;16.30;10.50;;;;;;;;;;5022026;28;20182;-76
2023/01/24 11:05:58;;;;;;;15.07;10.23;;;;;;;;;;5027485;28;20182;-77
2023/01/24 11:08:25;;;;;;;14.47;10.07;;;;;;;;;;5028222;28;20249;-77
2023/01/24 11:10:53;;;;;;;15.60;10.60;;;;;;;;;;5019417;28;20189;-77
2023/01/24 11:13:25;;;;;;;15.53;9.97;;;;;;;;;;5014475;28;20221;-77
2023/01/24 11:15:53;;;;;;;16.10;10.60;;;;;;;;;;5023178;28;20286;-77
2023/01/24 11:18:27;;;;;;;15.37;9.97;;;;;;;;;;5020269;28;20558;-77
2023/01/24 11:21:14;;;;;;;17.27;11.13;;;;;;;;;;5022799;28;20190;-76
2023/01/24 11:23:41;;;;;;;14.70;10.30;;;;;;;;;;5014663;28;20185;-77
2023/01/24 11:26:19;;;;;;;14.47;10.17;;;;;;;;;;5020247;28;20182;-76
2023/01/24 11:28:55;;;;;;;17.37;11.17;;;;;;;;;;5026552;28;20198;-77
2023/01/24 11:31:26;;;;;;;16.10;10.63;;;;;;;;;;5023053;28;20179;-77
2023/01/24 11:34:01;;;;;;;18.30;11.10;;;;;;;;;;5021792;28;20194;-77
2023/01/24 11:36:44;;;;;;;18.10;11.27;;;;;;;;;;5023123;28;20180;-77
2023/01/24 11:39:20;;;;;;;17.33;11.63;;;;;;;;;;5023696;28;20179;-77
2023/01/24 11:41:54;;;;;;;16.07;10.80;;;;;;;;;;5011791;28;20182;-76
2023/01/24 11:44:43;;;;;;;16.13;10.93;;;;;;;;;;5017084;28;20199;-77
2023/01/24 11:47:18;;;;;;;16.47;11.53;;;;;;;;;;5013124;28;20221;-77
2023/01/24 11:49:51;;;;;;;18.97;12.13;;;;;;;;;;5021591;28;20163;-77
2023/01/24 11:52:33;;;;;;;18.30;11.33;;;;;;;;;;5019729;28;20194;-77
2023/01/24 11:55:02;;;;;;;14.63;9.80;;;;;;;;;;5021550;28;20241;-77
2023/01/24 11:57:34;;;;;;;14.47;9.87;;;;;;;;;;5023086;28;20186;-77
2023/01/24 12:00:19;;;;;;;15.67;10.50;;;;;;;;;;5019217;28;20623;-77
2023/01/24 12:03:04;;;;;;;14.70;10.00;;;;;;;;;;5009658;28;20187;-77
2023/01/24 12:05:36;;;;;;;16.03;10.10;;;;;;;;;;5016319;28;20234;-76
2023/01/24 12:08:07;;;;;;;14.97;10.27;;;;;;;;;;5024581;28;20232;-77
2023/01/24 12:10:33;;;;;;;13.67;9.63;;;;;;;;;;5014294;28;20187;-77
2023/01/24 12:13:04;;;;;;;14.57;9.30;;;;;;;;;;5021420;28;20178;-77
2023/01/24 12:15:30;;;;;;;13.50;9.07;;;;;;;;;;5024145;28;20198;-77
2023/01/24 12:18:12;;;;;;;14.17;9.30;;;;;;;;;;5017452;28;20183;-76
2023/01/24 12:20:41;;;;;;;14.10;8.97;;;;;;;;;;5018523;28;20191;-77
2023/01/24 12:23:17;;;;;;;13.63;8.53;;;;;;;;;;5018003;28;20183;-77
2023/01/24 12:25:45;;;;;;;15.23;9.40;;;;;;;;;;5020583;28;20212;-77
2023/01/24 12:28:14;;;;;;;13.13;8.07;;;;;;;;;;5018278;28;20261;-77
2023/01/24 12:30:42;;;;;;;11.90;8.27;;;;;;;;;;5024381;28;20872;-77
2023/01/24 12:33:27;;;;;;;12.67;8.23;;;;;;;;;;5023728;28;20218;-77
2023/01/24 12:35:59;;;;;;;11.00;8.07;;;;;;;;;;5018396;28;20268;-77
2023/01/24 12:38:44;;;;;;;11.30;7.77;;;;;;;;;;5015164;28;20768;-76
2023/01/24 12:41:13;;;;;;;11.53;8.27;;;;;;;;;;5015613;28;20209;-77
2023/01/24 12:44:03;;;;;;;12.10;8.30;;;;;;;;;;5015520;28;20225;-77
2023/01/24 12:46:33;;;;;;;12.37;8.00;;;;;;;;;;5009474;28;20281;-76
2023/01/24 12:49:09;;;;;;;13.43;8.80;;;;;;;;;;5014975;28;20206;-77
2023/01/24 12:51:59;;;;;;;11.67;8.10;;;;;;;;;;5020960;28;20180;-77
2023/01/24 12:54:29;;;;;;;11.07;8.00;;;;;;;;;;4999458;28;20305;-77
2023/01/24 12:57:14;;;;;;;11.47;7.70;;;;;;;;;;5022272;28;20312;-77
2023/01/24 12:59:40;;;;;;;12.20;7.53;;;;;;;;;;5014389;28;20218;-77
2023/01/24 13:02:22;;;;;;;10.47;7.27;;;;;;;;;;5025149;28;20183;-75
2023/01/24 13:04:58;;;;;;;11.27;7.83;;;;;;;;;;5017180;28;20229;-74
2023/01/24 13:07:52;;;;;;;11.27;8.17;;;;;;;;;;5020029;28;20210;-76
2023/01/24 13:10:21;;;;;;;10.53;7.60;;;;;;;;;;5015539;28;20254;-75
2023/01/24 13:12:48;;;;;;;11.10;7.50;;;;;;;;;;5024428;28;20194;-75
2023/01/24 13:15:16;;;;;;;11.57;8.13;;;;;;;;;;5026414;28;20202;-75
2023/01/24 13:17:54;;;;;;;12.63;8.00;;;;;;;;;;5026330;28;20270;-75
2023/01/24 13:20:42;;;;;;;12.13;8.13;;;;;;;;;;5018818;28;20656;-76
2023/01/24 13:23:14;;;;;;;10.30;8.07;;;;;;;;;;5024181;28;20179;-76
2023/01/24 13:25:46;;;;;;;13.43;7.77;;;;;;;;;;5025224;28;20744;-74
2023/01/24 13:28:16;;;;;;;12.07;8.43;;;;;;;;;;5025737;28;20214;-76
2023/01/24 13:30:42;;;;;;;12.17;8.23;;;;;;;;;;5026878;28;20209;-75
2023/01/24 13:33:12;;;;;;;12.10;7.87;;;;;;;;;;5027954;28;20195;-74
2023/01/24 13:35:46;;;;;;;11.33;7.30;;;;;;;;;;5013605;28;20602;-74
2023/01/24 13:38:35;;;;;;;9.73;7.07;;;;;;;;;;5022070;28;20178;-79
2023/01/24 13:41:03;;;;;;;12.60;7.93;;;;;;;;;;5028498;28;20266;-75
2023/01/24 13:43:47;;;;;;;10.90;8.07;;;;;;;;;;5015541;28;20245;-75
2023/01/24 13:46:14;;;;;;;14.40;8.57;;;;;;;;;;5022689;28;20244;-75
2023/01/24 13:48:40;;;;;;;11.40;7.83;;;;;;;;;;5020557;28;20206;-75
2023/01/24 13:51:19;;;;;;;10.50;7.57;;;;;;;;;;5038921;28;20179;-75
2023/01/24 13:53:58;;;;;;;12.97;8.57;;;;;;;;;;5023276;28;20192;-75
2023/01/24 13:56:24;;;;;;;12.97;8.37;;;;;;;;;;5021880;28;20190;-75
2023/01/24 13:58:54;;;;;;;11.87;8.33;;;;;;;;;;5017887;28;20246;-75
2023/01/24 14:01:21;;;;;;;11.47;8.23;;;;;;;;;;5021627;28;20183;-76
2023/01/24 14:03:55;;;;;;;13.43;8.27;;;;;;;;;;5023845;28;20245;-76
2023/01/24 14:06:23;;;;;;;13.30;8.47;;;;;;;;;;5026804;28;20186;-77
2023/01/24 14:08:55;;;;;;;12.83;8.53;;;;;;;;;;5013113;28;20218;-75
2023/01/24 14:11:24;;;;;;;12.83;8.57;;;;;;;;;;5010915;28;20183;-77
2023/01/24 14:14:38;;;;;;;10.87;8.50;;;;;;;;;;5013065;28;20221;-76
2023/01/24 14:17:22;;;;;;;13.10;8.77;;;;;;;;;;5007843;28;20203;-75
2023/01/24 14:19:49;;;;;;;11.60;8.27;;;;;;;;;;5021058;28;20214;-75
2023/01/24 14:22:17;;;;;;;12.87;8.20;;;;;;;;;;5019648;28;20758;-75
2023/01/24 14:25:05;;;;;;;14.80;9.50;;;;;;;;;;5022234;28;20209;-75
2023/01/24 14:27:39;;;;;;;14.10;9.43;;;;;;;;;;5015560;28;20293;-76
2023/01/24 14:30:24;;;;;;;14.27;9.40;;;;;;;;;;5017881;28;20690;-74
2023/01/24 14:32:51;;;;;;;12.67;8.93;;;;;;;;;;5019787;28;20170;-75
2023/01/24 14:35:20;;;;;;;12.07;8.93;;;;;;;;;;5020582;28;20203;-76
2023/01/24 14:37:47;;;;;;;14.87;9.83;;;;;;;;;;5019210;28;20642;-76
2023/01/24 14:40:26;;;;;;;16.23;10.43;;;;;;;;;;5017154;28;20197;-76
2023/01/24 14:42:59;;;;;;;13.77;9.43;;;;;;;;;;5021712;28;20179;-75
2023/01/24 14:45:27;;;;;;;12.83;9.03;;;;;;;;;;5022039;28;20795;-75
2023/01/24 14:47:54;;;;;;;15.33;9.70;;;;;;;;;;5020080;28;20452;-74
2023/01/24 14:50:28;;;;;;;14.40;10.03;;;;;;;;;;5016803;28;21806;-75
2023/01/24 14:52:55;;;;;;;15.73;10.37;;;;;;;;;;5007666;28;20185;-75
2023/01/24 14:55:31;;;;;;;17.10;10.07;;;;;;;;;;5017015;28;20214;-76
2023/01/24 14:57:57;;;;;;;16.17;10.73;;;;;;;;;;5022056;28;20179;-75
2023/01/24 15:00:23;;;;;;;15.30;10.20;;;;;;;;;;5024113;28;20186;-75
2023/01/24 15:02:56;;;;;;;14.70;10.13;;;;;;;;;;5026029;28;20201;-75
2023/01/24 15:05:25;;;;;;;15.80;10.00;;;;;;;;;;5024193;28;20553;-74
2023/01/24 15:07:51;;;;;;;16.37;10.37;;;;;;;;;;5019135;28;20713;-75
2023/01/24 15:10:22;;;;;;;16.20;11.07;;;;;;;;;;5017804;28;20179;-74
2023/01/24 15:12:51;;;;;;;16.97;10.37;;;;;;;;;;5015426;28;20255;-75
2023/01/24 15:15:18;;;;;;;15.07;9.47;;;;;;;;;;5021720;28;20230;-75
2023/01/24 15:17:49;;;;;;;17.10;10.60;;;;;;;;;;5015335;28;20763;-74
2023/01/24 15:20:21;;;;;;;14.10;9.67;;;;;;;;;;5017751;28;20193;-74